Time;durP1;ratioP1;P1;durP2;ratioP2;P2;SDS_P1;SDS_P2;PMS_P1;PMS_P2;Temp;Humidity;BMP_temperature;BMP_pressure;BME280_temperature;BME280_humidity;BME280_pressure;Samples;Min_cycle;Max_cycle;Signal;HPM_P1;HPM_P2
2022/08/10 00:01:30;;;;;;;4.75;4.35;;;24.60;59.30;;;;;;4972240;28;20121;-21
2022/08/10 00:03:56;;;;;;;3.80;3.50;;;24.60;59.40;;;;;;4970054;28;20153;-22
2022/08/10 00:06:21;;;;;;;3.97;3.55;;;24.60;59.40;;;;;;4970150;28;20034;-21
2022/08/10 00:08:47;;;;;;;3.88;3.58;;;24.60;59.50;;;;;;4969110;28;20618;-22
2022/08/10 00:11:12;;;;;;;3.90;3.60;;;24.60;59.40;;;;;;4971208;28;20117;-21
2022/08/10 00:13:38;;;;;;;3.65;3.45;;;24.60;59.40;;;;;;4971394;28;20060;-24
2022/08/10 00:16:03;;;;;;;4.22;3.80;;;24.60;59.40;;;;;;4971501;28;20038;-21
2022/08/10 00:18:29;;;;;;;3.80;3.22;;;24.60;59.50;;;;;;4968486;28;20045;-24
2022/08/10 00:20:55;;;;;;;3.72;3.53;;;24.60;59.40;;;;;;4969899;28;20073;-23
2022/08/10 00:23:20;;;;;;;3.92;3.28;;;24.60;60.20;;;;;;4969708;28;20045;-21
2022/08/10 00:25:46;;;;;;;3.70;3.50;;;24.60;59.50;;;;;;4971625;28;20069;-22
2022/08/10 00:28:11;;;;;;;3.70;3.42;;;24.60;59.60;;;;;;4968576;28;20026;-22
2022/08/10 00:30:37;;;;;;;3.63;3.42;;;24.60;59.40;;;;;;4969639;28;20058;-21
2022/08/10 00:33:03;;;;;;;4.30;3.85;;;24.60;59.50;;;;;;4970857;28;20117;-24
2022/08/10 00:35:28;;;;;;;3.47;3.17;;;24.60;59.70;;;;;;4970462;28;20034;-21
2022/08/10 00:37:54;;;;;;;3.30;3.10;;;24.60;59.60;;;;;;4969991;28;20164;-23
2022/08/10 00:40:19;;;;;;;3.45;2.75;;;24.60;59.50;;;;;;4969718;28;20042;-22
2022/08/10 00:42:45;;;;;;;3.65;3.35;;;24.60;59.50;;;;;;4970599;28;20041;-21
2022/08/10 00:45:10;;;;;;;3.13;2.92;;;24.60;59.50;;;;;;4970419;28;20045;-22
2022/08/10 00:47:36;;;;;;;3.13;2.92;;;24.60;59.60;;;;;;4968638;28;20102;-23
2022/08/10 00:50:03;;;;;;;3.28;3.08;;;24.60;59.40;;;;;;4971691;28;20050;-23
2022/08/10 00:52:29;;;;;;;3.05;2.75;;;24.60;59.50;;;;;;4970417;28;20050;-25
2022/08/10 00:54:54;;;;;;;2.92;2.72;;;24.60;59.50;;;;;;4969138;28;20423;-22
2022/08/10 00:57:20;;;;;;;2.92;2.72;;;24.60;59.40;;;;;;4967640;28;20045;-20
2022/08/10 00:59:46;;;;;;;3.08;2.72;;;24.50;59.50;;;;;;5001611;28;20088;-21
2022/08/10 01:02:11;;;;;;;3.05;2.83;;;24.60;59.50;;;;;;4971169;28;20057;-21
2022/08/10 01:04:37;;;;;;;3.10;2.90;;;24.60;59.50;;;;;;4970873;28;20030;-21
2022/08/10 01:07:33;;;;;;;3.47;3.17;;;24.60;59.50;;;;;;4970350;28;20043;-22
2022/08/10 01:10:27;;;;;;;2.72;2.53;;;24.50;59.50;;;;;;4971068;28;20511;-22
2022/08/10 01:13:03;;;;;;;2.40;2.30;;;24.50;59.60;;;;;;4989893;28;20145;-23
2022/08/10 01:15:30;;;;;;;3.58;2.78;;;24.50;59.50;;;;;;4972811;28;20050;-21
2022/08/10 01:18:12;;;;;;;2.42;2.30;;;24.50;59.60;;;;;;5002465;28;20042;-23
2022/08/10 01:20:53;;;;;;;2.92;2.63;;;24.50;59.50;;;;;;5004817;28;20133;-21
2022/08/10 01:23:34;;;;;;;2.03;1.92;;;24.60;59.50;;;;;;5004534;28;20042;-24
2022/08/10 01:26:37;;;;;;;2.20;2.10;;;24.50;59.50;;;;;;5001481;28;20034;-21
2022/08/10 01:29:11;;;;;;;1.85;1.75;;;24.50;59.50;;;;;;4970935;28;20244;-26
2022/08/10 01:31:39;;;;;;;1.88;1.77;;;24.50;59.50;;;;;;4973111;28;20742;-23
2022/08/10 01:34:09;;;;;;;2.40;2.20;;;24.50;59.50;;;;;;4971621;28;20870;-21
2022/08/10 01:36:47;;;;;;;2.72;2.53;;;24.50;59.60;;;;;;4987207;28;20526;-23
2022/08/10 01:39:17;;;;;;;1.98;1.88;;;24.50;59.50;;;;;;4983575;28;20042;-26
2022/08/10 01:41:43;;;;;;;2.05;1.92;;;24.50;59.50;;;;;;4988479;28;20062;-31
2022/08/10 01:44:28;;;;;;;1.92;1.83;;;24.50;59.60;;;;;;4973603;28;20031;-25
2022/08/10 01:48:27;;;;;;;2.15;2.05;;;24.50;59.50;;;;;;4989647;28;20895;-22
2022/08/10 01:49:43;;;;;;;1.90;1.80;;;24.50;59.40;;;;;;4972148;28;20045;-24
2022/08/10 01:52:08;;;;;;;2.10;1.90;;;24.50;59.70;;;;;;4972468;28;20058;-21
2022/08/10 01:54:34;;;;;;;1.85;1.75;;;24.50;59.60;;;;;;4987711;28;20153;-27
2022/08/10 01:56:59;;;;;;;1.95;1.85;;;24.50;59.50;;;;;;5003807;28;20038;-21
2022/08/10 01:59:32;;;;;;;2.33;2.17;;;24.50;59.60;;;;;;4985301;28;20044;-23
2022/08/10 02:02:05;;;;;;;1.90;1.80;;;24.40;59.60;;;;;;4989031;28;20692;-26
2022/08/10 02:04:33;;;;;;;2.17;1.90;;;24.50;59.60;;;;;;5005482;28;20121;-22
2022/08/10 02:07:00;;;;;;;1.83;1.73;;;24.40;59.50;;;;;;4973491;28;20068;-21
2022/08/10 02:09:39;;;;;;;2.10;2.00;;;24.40;59.60;;;;;;4984636;28;20508;-21
2022/08/10 02:12:06;;;;;;;1.80;1.70;;;24.50;59.80;;;;;;4973077;28;20507;-22
2022/08/10 02:14:39;;;;;;;1.95;1.85;;;24.40;59.60;;;;;;4972972;28;20147;-20
2022/08/10 02:17:13;;;;;;;1.98;1.88;;;24.40;59.50;;;;;;4970423;28;20030;-21
2022/08/10 02:19:39;;;;;;;;;;;24.50;59.50;;;;;;4988339;28;20042;-21
2022/08/10 02:22:04;;;;;;;1.70;1.60;;;24.40;60.30;;;;;;4971309;28;19972;-21
2022/08/10 02:24:30;;;;;;;2.00;1.80;;;24.40;59.60;;;;;;4971679;28;20129;-21
2022/08/10 02:26:56;;;;;;;2.10;1.92;;;24.40;59.60;;;;;;4970617;28;20034;-25
2022/08/10 02:29:21;;;;;;;2.45;1.80;;;24.40;59.60;;;;;;4968745;28;20496;-22
2022/08/10 02:31:47;;;;;;;1.60;1.50;;;24.40;59.70;;;;;;4972238;28;20058;-20
2022/08/10 02:34:13;;;;;;;1.52;1.42;;;24.40;59.50;;;;;;4987406;28;20125;-23
2022/08/10 02:36:42;;;;;;;1.98;1.88;;;24.40;59.50;;;;;;4970885;28;20042;-22
2022/08/10 02:39:07;;;;;;;1.70;1.60;;;24.40;59.60;;;;;;4969886;28;20049;-22
2022/08/10 02:41:48;;;;;;;1.77;1.65;;;24.40;59.60;;;;;;4987061;28;20038;-22
2022/08/10 02:44:30;;;;;;;2.10;1.60;;;24.40;59.70;;;;;;4973198;28;20117;-21
2022/08/10 02:47:07;;;;;;;1.40;1.30;;;24.40;59.60;;;;;;4988842;28;20113;-23
2022/08/10 02:49:39;;;;;;;1.83;1.73;;;24.40;59.50;;;;;;5001218;28;20030;-22
2022/08/10 02:52:08;;;;;;;2.05;1.95;;;24.40;59.60;;;;;;4970533;28;20630;-21
2022/08/10 02:54:37;;;;;;;1.20;1.10;;;24.40;59.60;;;;;;4971288;28;20057;-21
2022/08/10 02:57:19;;;;;;;1.40;1.30;;;24.40;59.60;;;;;;4984569;28;20030;-20
2022/08/10 02:59:50;;;;;;;1.52;1.42;;;24.40;59.60;;;;;;4986838;28;20035;-21
2022/08/10 03:02:22;;;;;;;1.10;1.10;;;24.40;59.70;;;;;;4985977;28;20437;-21
2022/08/10 03:04:48;;;;;;;1.63;1.48;;;24.40;59.70;;;;;;4971359;28;20045;-21
2022/08/10 03:07:15;;;;;;;1.30;1.20;;;24.40;59.60;;;;;;5001130;28;20034;-23
2022/08/10 03:09:41;;;;;;;1.50;1.40;;;24.40;59.60;;;;;;4985802;28;20062;-21
2022/08/10 03:12:07;;;;;;;1.58;1.48;;;24.40;59.70;;;;;;4987104;28;20125;-21
2022/08/10 03:14:33;;;;;;;1.42;1.33;;;24.40;59.70;;;;;;5002586;28;20086;-26
2022/08/10 03:17:00;;;;;;;1.35;1.30;;;24.40;59.60;;;;;;5003797;28;20129;-22
2022/08/10 03:19:26;;;;;;;1.42;1.33;;;24.40;59.70;;;;;;4984882;28;20027;-23
2022/08/10 03:21:51;;;;;;;1.33;1.27;;;24.40;59.70;;;;;;4969969;28;20420;-21
2022/08/10 03:24:21;;;;;;;1.48;1.33;;;24.40;59.60;;;;;;4970772;28;20389;-21
2022/08/10 03:26:49;;;;;;;1.50;1.40;;;24.40;59.60;;;;;;4986416;28;20113;-25
2022/08/10 03:29:17;;;;;;;1.60;1.50;;;24.40;59.60;;;;;;4968403;28;20037;-21
2022/08/10 03:31:43;;;;;;;1.23;1.20;;;24.30;59.50;;;;;;4987078;28;20550;-21
2022/08/10 03:34:08;;;;;;;1.40;1.30;;;24.30;59.70;;;;;;4970248;28;20419;-24
2022/08/10 03:36:34;;;;;;;1.17;1.08;;;24.30;59.50;;;;;;4971853;28;20038;-20
2022/08/10 03:38:59;;;;;;;1.40;1.30;;;24.30;59.60;;;;;;4969437;28;20523;-20
2022/08/10 03:41:30;;;;;;;1.48;1.38;;;24.30;59.60;;;;;;4969508;28;20273;-22
2022/08/10 03:43:56;;;;;;;1.88;1.48;;;24.30;59.70;;;;;;5002752;28;20124;-24
2022/08/10 03:46:23;;;;;;;1.50;1.40;;;24.30;59.70;;;;;;4986825;28;20547;-22
2022/08/10 03:48:50;;;;;;;1.40;1.30;;;24.30;59.40;;;;;;4983526;28;20034;-22
2022/08/10 03:51:21;;;;;;;1.45;1.38;;;24.30;59.60;;;;;;4969610;28;20053;-21
2022/08/10 03:53:46;;;;;;;1.17;1.17;;;24.30;60.30;;;;;;4985123;28;20125;-22
2022/08/10 03:56:12;;;;;;;1.25;1.10;;;24.30;59.50;;;;;;4970392;28;20045;-21
2022/08/10 03:58:37;;;;;;;1.40;1.15;;;24.30;59.50;;;;;;4968604;28;20034;-22
2022/08/10 04:01:03;;;;;;;1.02;1.02;;;24.30;59.60;;;;;;4969059;28;20034;-21
2022/08/10 04:03:28;;;;;;;1.00;1.00;;;24.30;59.50;;;;;;5003270;28;20491;-22
2022/08/10 04:05:54;;;;;;;1.48;1.38;;;24.30;59.60;;;;;;4972894;28;20030;-20
2022/08/10 04:08:20;;;;;;;1.40;1.30;;;24.30;59.70;;;;;;4970060;28;20084;-20
2022/08/10 04:10:45;;;;;;;1.40;1.30;;;24.30;59.60;;;;;;5004095;28;20666;-23
2022/08/10 04:13:11;;;;;;;1.00;1.00;;;24.30;59.50;;;;;;4972790;28;20030;-21
2022/08/10 04:15:37;;;;;;;1.00;1.00;;;24.30;59.50;;;;;;4972439;28;20027;-20
2022/08/10 04:18:02;;;;;;;1.45;1.35;;;24.30;59.40;;;;;;4970208;28;20766;-21
2022/08/10 04:20:34;;;;;;;1.23;1.13;;;24.30;59.50;;;;;;4971529;28;20043;-21
2022/08/10 04:23:02;;;;;;;1.67;1.40;;;24.30;59.40;;;;;;5003049;28;20031;-20
2022/08/10 04:25:27;;;;;;;1.10;1.10;;;24.30;59.40;;;;;;5003041;28;20034;-22
2022/08/10 04:27:53;;;;;;;2.72;1.27;;;24.30;59.50;;;;;;4984861;28;20585;-24
2022/08/10 04:30:19;;;;;;;1.00;0.98;;;24.30;59.50;;;;;;4970006;28;20068;-23
2022/08/10 04:32:46;;;;;;;1.05;0.95;;;24.30;59.40;;;;;;4970882;28;20034;-26
2022/08/10 04:35:12;;;;;;;1.30;1.20;;;24.30;59.50;;;;;;4969515;28;20026;-20
2022/08/10 04:37:38;;;;;;;1.05;0.98;;;24.30;59.40;;;;;;4970610;28;20536;-21
2022/08/10 04:40:04;;;;;;;0.90;0.90;;;24.20;59.50;;;;;;4971046;28;20045;-20
2022/08/10 04:42:30;;;;;;;1.00;1.00;;;24.20;59.50;;;;;;4971300;28;20581;-23
2022/08/10 04:44:55;;;;;;;1.08;1.08;;;24.30;59.50;;;;;;5004009;28;20038;-23
2022/08/10 04:47:21;;;;;;;0.90;0.90;;;24.20;59.50;;;;;;4973136;28;20035;-22
2022/08/10 04:49:46;;;;;;;1.50;1.40;;;24.30;59.40;;;;;;4973884;28;20527;-24
2022/08/10 04:52:12;;;;;;;1.80;1.65;;;24.40;59.80;;;;;;5005176;28;20116;-21
2022/08/10 04:54:38;;;;;;;1.25;1.23;;;24.30;59.20;;;;;;4974216;28;20038;-21
2022/08/10 04:57:04;;;;;;;1.80;1.10;;;23.90;59.00;;;;;;4984813;28;20531;-21
2022/08/10 04:59:29;;;;;;;2.72;1.38;;;23.60;59.70;;;;;;4988013;28;20058;-22
2022/08/10 05:01:55;;;;;;;2.00;1.10;;;23.50;59.70;;;;;;4987826;28;20050;-20
2022/08/10 05:04:20;;;;;;;1.42;1.15;;;23.50;59.80;;;;;;4987008;28;20167;-21
2022/08/10 05:06:46;;;;;;;1.60;1.20;;;23.30;59.90;;;;;;4985288;28;20550;-25
2022/08/10 05:09:12;;;;;;;2.40;1.02;;;23.20;60.20;;;;;;4984878;28;20594;-20
2022/08/10 05:11:37;;;;;;;1.88;1.38;;;23.00;60.90;;;;;;4988612;28;20121;-22
2022/08/10 05:14:03;;;;;;;1.92;1.17;;;23.00;60.90;;;;;;4986525;28;20039;-23
2022/08/10 05:16:28;;;;;;;2.33;1.48;;;22.90;61.30;;;;;;4987950;28;20577;-21
2022/08/10 05:18:54;;;;;;;1.20;1.10;;;22.90;61.50;;;;;;4986517;28;20053;-21
2022/08/10 05:21:19;;;;;;;2.40;1.30;;;22.80;61.60;;;;;;4986573;28;20030;-21
2022/08/10 05:23:45;;;;;;;1.25;1.00;;;22.80;61.70;;;;;;4986689;28;20411;-20
2022/08/10 05:26:11;;;;;;;1.27;1.15;;;22.70;61.80;;;;;;4985590;28;20031;-23
2022/08/10 05:28:36;;;;;;;4.10;1.52;;;22.80;61.70;;;;;;4988195;28;20038;-24
2022/08/10 05:31:02;;;;;;;3.42;1.10;;;22.70;61.80;;;;;;4988078;28;20034;-20
2022/08/10 05:33:27;;;;;;;1.63;1.20;;;22.60;62.40;;;;;;4985758;28;20046;-22
2022/08/10 05:35:53;;;;;;;1.38;1.13;;;22.60;62.50;;;;;;4986251;28;20042;-21
2022/08/10 05:38:20;;;;;;;3.63;1.30;;;22.40;63.00;;;;;;4986272;28;20041;-21
2022/08/10 05:40:45;;;;;;;2.45;1.13;;;22.40;63.20;;;;;;4986269;28;20369;-23
2022/08/10 05:43:11;;;;;;;1.70;1.30;;;22.30;63.60;;;;;;4985334;28;20074;-26
2022/08/10 05:45:36;;;;;;;1.02;1.00;;;22.20;63.80;;;;;;4986526;28;20046;-23
2022/08/10 05:48:02;;;;;;;1.30;1.00;;;22.30;63.80;;;;;;4986455;28;20026;-22
2022/08/10 05:50:29;;;;;;;1.50;1.20;;;22.30;63.60;;;;;;4986707;28;20042;-21
2022/08/10 05:52:55;;;;;;;1.92;1.25;;;22.30;63.70;;;;;;5018042;28;20083;-21
2022/08/10 05:55:22;;;;;;;1.58;1.38;;;22.30;63.80;;;;;;4985316;28;20550;-24
2022/08/10 05:57:47;;;;;;;1.42;0.98;;;22.20;64.10;;;;;;4985945;28;20452;-23
2022/08/10 06:00:17;;;;;;;2.42;1.40;;;22.10;64.20;;;;;;4986555;28;20073;-23
2022/08/10 06:02:44;;;;;;;1.83;1.40;;;22.10;64.40;;;;;;4988093;28;20495;-21
2022/08/10 06:05:20;;;;;;;1.15;1.05;;;22.10;64.70;;;;;;4983096;28;20038;-22
2022/08/10 06:07:58;;;;;;;1.63;1.10;;;22.10;64.80;;;;;;4987582;28;20112;-21
2022/08/10 06:10:23;;;;;;;3.30;1.30;;;22.10;64.90;;;;;;4987262;28;20038;-20
2022/08/10 06:14:59;;;;;;;1.67;1.30;;;22.00;65.30;;;;;;4985143;28;20038;-20
2022/08/10 06:15:36;;;;;;;1.50;1.40;;;22.00;65.50;;;;;;5001201;28;20500;-20
2022/08/10 06:18:01;;;;;;;1.55;1.23;;;22.00;65.60;;;;;;4986665;28;20691;-22
2022/08/10 06:20:28;;;;;;;2.25;1.10;;;22.00;65.50;;;;;;5001704;28;20105;-22
2022/08/10 06:22:53;;;;;;;2.20;1.27;;;21.90;66.10;;;;;;5019373;28;20050;-20
2022/08/10 06:25:19;;;;;;;1.52;1.30;;;21.90;66.30;;;;;;4997213;28;20035;-21
2022/08/10 06:27:44;;;;;;;1.13;1.00;;;21.80;66.30;;;;;;4980856;28;20487;-21
2022/08/10 06:30:10;;;;;;;3.55;1.20;;;21.90;66.20;;;;;;5016393;28;20043;-20
2022/08/10 06:32:36;;;;;;;2.50;1.30;;;21.90;66.30;;;;;;4983509;28;20112;-21
2022/08/10 06:35:02;;;;;;;3.60;1.30;;;21.80;66.40;;;;;;5014404;28;20472;-20
2022/08/10 06:37:28;;;;;;;1.42;1.33;;;21.90;66.60;;;;;;4965470;28;20037;-21
2022/08/10 06:39:53;;;;;;;1.60;1.50;;;21.80;66.60;;;;;;4967647;28;20041;-22
2022/08/10 06:42:33;;;;;;;1.75;1.27;;;21.70;66.90;;;;;;4969781;28;20026;-20
2022/08/10 06:45:10;;;;;;;1.80;1.70;;;21.70;67.10;;;;;;4971262;28;20113;-22
2022/08/10 06:47:40;;;;;;;1.55;1.40;;;21.70;67.20;;;;;;4998515;28;20089;-23
2022/08/10 06:50:10;;;;;;;2.50;1.45;;;21.70;67.30;;;;;;4977783;28;20527;-20
2022/08/10 06:52:35;;;;;;;1.70;1.60;;;21.70;67.40;;;;;;4981351;28;20037;-22
2022/08/10 06:55:02;;;;;;;1.30;1.13;;;21.70;67.50;;;;;;4996844;28;20038;-22
2022/08/10 06:57:30;;;;;;;3.15;1.13;;;21.70;67.30;;;;;;4996655;28;20037;-22
2022/08/10 06:59:55;;;;;;;2.35;1.40;;;21.70;67.30;;;;;;4995135;28;20046;-20
2022/08/10 07:02:26;;;;;;;1.83;1.10;;;21.80;67.40;;;;;;4981676;28;20416;-26
2022/08/10 07:04:58;;;;;;;2.28;1.25;;;21.80;67.30;;;;;;4997513;28;20053;-21
2022/08/10 07:07:25;;;;;;;2.38;1.60;;;21.80;67.50;;;;;;4995294;28;20026;-20
2022/08/10 07:09:50;;;;;;;1.20;1.20;;;21.90;67.40;;;;;;4993993;28;20034;-28
2022/08/10 07:12:16;;;;;;;1.63;1.50;;;21.90;67.10;;;;;;4979420;28;20042;-20
2022/08/10 07:14:43;;;;;;;1.33;1.17;;;22.00;67.10;;;;;;4993928;28;20034;-20
2022/08/10 07:17:13;;;;;;;2.15;1.30;;;22.00;67.00;;;;;;4976792;28;20083;-19
2022/08/10 07:19:39;;;;;;;1.30;0.98;;;22.00;67.00;;;;;;4978462;28;20523;-20
2022/08/10 07:22:04;;;;;;;2.45;0.90;;;22.00;67.00;;;;;;4993332;28;20018;-21
2022/08/10 07:24:31;;;;;;;1.30;1.05;;;22.00;66.90;;;;;;4989072;28;20260;-20
2022/08/10 07:26:57;;;;;;;1.70;1.00;;;22.00;67.00;;;;;;4974043;28;20490;-20
2022/08/10 07:29:27;;;;;;;1.30;1.20;;;22.10;66.90;;;;;;4993143;28;20125;-20
2022/08/10 07:31:52;;;;;;;0.90;0.82;;;22.10;66.90;;;;;;4992988;28;20349;-20
2022/08/10 07:34:19;;;;;;;2.25;1.10;;;22.20;66.50;;;;;;5010943;28;20491;-22
2022/08/10 07:36:45;;;;;;;1.13;0.90;;;22.10;66.60;;;;;;5006422;28;20467;-21
2022/08/10 07:39:11;;;;;;;1.35;1.20;;;22.10;66.40;;;;;;4978507;28;20053;-21
2022/08/10 07:41:39;;;;;;;1.70;0.90;;;22.20;66.30;;;;;;4976692;28;20092;-20
2022/08/10 07:44:05;;;;;;;3.58;0.80;;;22.20;66.30;;;;;;4979372;28;20105;-22
2022/08/10 07:46:31;;;;;;;2.50;1.02;;;22.30;66.20;;;;;;4977603;28;20125;-22
2022/08/10 07:49:03;;;;;;;1.30;1.20;;;22.30;66.00;;;;;;4992269;28;20040;-20
2022/08/10 07:51:30;;;;;;;1.50;1.00;;;22.40;65.90;;;;;;4994140;28;20080;-23
2022/08/10 07:53:55;;;;;;;0.75;0.70;;;22.40;65.70;;;;;;4991525;28;20055;-20
2022/08/10 07:56:25;;;;;;;1.30;1.15;;;22.60;66.00;;;;;;4991461;28;20593;-21
2022/08/10 07:58:54;;;;;;;1.73;0.90;;;22.60;65.20;;;;;;4994748;28;20983;-21
2022/08/10 08:01:20;;;;;;;1.02;0.80;;;22.60;64.90;;;;;;4992989;28;20042;-20
2022/08/10 08:03:46;;;;;;;1.02;0.80;;;22.80;65.00;;;;;;4974191;28;20590;-20
2022/08/10 08:06:11;;;;;;;0.77;0.77;;;22.90;65.00;;;;;;4981582;28;20051;-22
2022/08/10 08:08:37;;;;;;;0.95;0.80;;;22.90;64.70;;;;;;4991670;28;20054;-20
2022/08/10 08:11:03;;;;;;;1.55;1.23;;;22.90;64.70;;;;;;4628193;28;10000108;-21
2022/08/10 08:13:29;;;;;;;1.33;0.80;;;23.00;64.70;;;;;;5006999;28;20050;-20
2022/08/10 08:15:55;;;;;;;1.92;1.00;;;23.00;64.60;;;;;;4979990;28;20038;-20
2022/08/10 08:18:20;;;;;;;2.03;1.10;;;23.00;64.60;;;;;;5012405;28;20423;-17
2022/08/10 08:20:46;;;;;;;1.85;1.00;;;23.10;64.90;;;;;;4981493;28;20427;-17
2022/08/10 08:23:12;;;;;;;5.60;1.40;;;23.10;64.40;;;;;;4982861;28;20052;-17
2022/08/10 08:25:38;;;;;;;1.45;1.10;;;23.10;64.40;;;;;;5001878;28;20057;-17
2022/08/10 08:28:04;;;;;;;3.92;1.17;;;23.20;64.20;;;;;;5001280;28;20062;-17
2022/08/10 08:30:30;;;;;;;1.30;1.20;;;23.20;64.40;;;;;;4985137;28;20045;-17
2022/08/10 08:32:55;;;;;;;1.23;1.17;;;23.10;63.80;;;;;;4984547;28;20038;-22
2022/08/10 08:35:21;;;;;;;1.25;1.10;;;23.20;63.80;;;;;;4985463;28;20069;-17
2022/08/10 08:37:48;;;;;;;1.30;1.20;;;23.20;63.40;;;;;;5019538;28;20652;-25
2022/08/10 08:40:17;;;;;;;1.33;1.00;;;23.30;63.00;;;;;;4974528;28;20054;-17
2022/08/10 08:42:49;;;;;;;1.00;0.85;;;23.30;63.70;;;;;;4984008;28;20385;-17
2022/08/10 08:45:44;;;;;;;1.05;0.80;;;23.30;62.70;;;;;;4982513;28;20085;-17
2022/08/10 08:48:18;;;;;;;0.98;0.98;;;23.30;62.50;;;;;;4973648;28;20046;-17
2022/08/10 08:50:53;;;;;;;1.30;1.02;;;23.30;62.30;;;;;;5016449;28;20050;-17
2022/08/10 08:53:46;;;;;;;0.90;0.90;;;23.30;62.30;;;;;;4985476;28;20050;-17
2022/08/10 08:56:33;;;;;;;0.93;0.75;;;23.30;62.10;;;;;;4999754;28;20193;-17
2022/08/10 08:59:24;;;;;;;1.02;0.90;;;23.40;61.80;;;;;;4985044;28;20508;-17
2022/08/10 09:02:35;;;;;;;1.23;1.13;;;23.40;61.70;;;;;;4982609;28;20050;-17
2022/08/10 09:05:19;;;;;;;1.35;1.05;;;23.40;61.70;;;;;;4921566;29;20043;-18
2022/08/10 09:07:57;;;;;;;1.27;0.97;;;23.40;61.60;;;;;;4907381;29;20168;-17
2022/08/10 09:10:33;;;;;;;1.05;0.90;;;23.50;61.30;;;;;;4915783;29;20286;-17
2022/08/10 09:13:17;;;;;;;1.02;1.02;;;23.60;61.50;;;;;;4889968;29;20144;-17
2022/08/10 09:15:59;;;;;;;;;;;23.60;61.10;;;;;;4906927;29;20096;-17
2022/08/10 09:19:00;;;;;;;1.65;1.20;;;23.60;61.30;;;;;;4908824;29;19930;-18
2022/08/10 09:21:38;;;;;;;0.80;0.80;;;23.70;61.60;;;;;;4911646;28;20058;-48
2022/08/10 09:24:12;;;;;;;0.82;0.82;;;23.70;61.60;;;;;;4917948;28;20070;-45
2022/08/10 09:26:49;;;;;;;1.08;0.80;;;23.70;61.50;;;;;;4924363;28;20359;-45
2022/08/10 09:29:26;;;;;;;0.75;0.75;;;23.70;61.50;;;;;;4909611;28;20124;-49
2022/08/10 09:32:13;;;;;;;2.63;1.00;;;23.70;61.40;;;;;;4926065;28;20055;-38
2022/08/10 09:35:14;;;;;;;0.80;0.80;;;23.70;61.20;;;;;;4909422;28;20062;-46
2022/08/10 09:37:49;;;;;;;1.05;0.77;;;23.80;61.30;;;;;;4886868;29;20119;-39
2022/08/10 09:40:28;;;;;;;0.90;0.90;;;23.80;61.30;;;;;;4917494;28;20142;-45
2022/08/10 09:43:02;;;;;;;1.15;0.95;;;23.80;60.90;;;;;;4939741;28;20055;-49
2022/08/10 09:45:44;;;;;;;1.25;0.90;;;23.80;60.60;;;;;;4942043;28;20580;-40
2022/08/10 09:48:25;;;;;;;0.98;0.77;;;23.90;60.90;;;;;;4958464;28;20065;-40
2022/08/10 09:51:05;;;;;;;1.08;0.82;;;23.90;60.80;;;;;;4947745;28;20042;-43
2022/08/10 09:53:50;;;;;;;0.82;0.82;;;23.90;60.70;;;;;;4957803;28;20051;-42
2022/08/10 09:56:41;;;;;;;0.65;0.65;;;24.00;60.40;;;;;;4978664;28;20508;-42
2022/08/10 09:59:10;;;;;;;1.35;0.98;;;24.00;59.90;;;;;;4962395;28;20149;-42
2022/08/10 10:01:52;;;;;;;1.15;0.93;;;24.00;60.40;;;;;;4978890;28;20064;-42
2022/08/10 10:04:33;;;;;;;1.50;0.80;;;24.00;60.50;;;;;;4978126;28;20030;-42
2022/08/10 10:07:02;;;;;;;1.15;1.00;;;24.00;60.50;;;;;;4943235;28;20054;-42
2022/08/10 10:09:48;;;;;;;0.93;0.90;;;23.90;60.40;;;;;;4961397;28;20070;-42
2022/08/10 10:12:28;;;;;;;0.70;0.70;;;24.00;60.60;;;;;;4979873;28;20046;-42
2022/08/10 10:15:29;;;;;;;0.90;0.90;;;24.00;60.50;;;;;;4992254;28;20014;-42
2022/08/10 10:18:29;;;;;;;0.63;0.63;;;24.00;60.40;;;;;;4987304;28;20407;-42
2022/08/10 10:21:04;;;;;;;0.65;0.52;;;24.10;60.30;;;;;;4660828;28;10000225;-41
2022/08/10 10:23:50;;;;;;;0.88;0.88;;;24.10;59.90;;;;;;4981981;28;20033;-42
2022/08/10 10:26:21;;;;;;;1.70;1.60;;;24.10;59.80;;;;;;4980169;28;20528;-42
2022/08/10 10:29:14;;;;;;;2.20;1.83;;;24.10;59.70;;;;;;5012234;28;20069;-42
2022/08/10 10:32:00;;;;;;;3.75;3.45;;;24.20;59.50;;;;;;4985136;28;20050;-42
2022/08/10 10:34:31;;;;;;;4.35;3.72;;;24.20;59.30;;;;;;5008899;28;20026;-42
2022/08/10 10:36:57;;;;;;;6.72;6.03;;;24.20;59.00;;;;;;4983600;28;20042;-42
2022/08/10 10:39:23;;;;;;;5.25;4.82;;;24.20;58.90;;;;;;4981541;28;20037;-42
2022/08/10 10:42:15;;;;;;;9.40;8.23;;;24.30;59.20;;;;;;5013765;28;20026;-42
2022/08/10 10:45:18;;;;;;;12.15;8.55;;;24.30;58.90;;;;;;4978223;28;20035;-42
2022/08/10 10:47:47;;;;;;;9.00;7.95;;;24.30;59.00;;;;;;5016475;28;20034;-42
2022/08/10 10:50:35;;;;;;;8.93;7.97;;;24.30;58.80;;;;;;4980010;28;20104;-42
2022/08/10 10:53:37;;;;;;;11.25;7.40;;;24.30;58.90;;;;;;5007467;28;20032;-42
2022/08/10 10:56:21;;;;;;;8.30;6.93;;;24.30;59.10;;;;;;4986596;28;20030;-42
2022/08/10 10:59:06;;;;;;;7.50;6.80;;;24.30;59.20;;;;;;4983231;28;20030;-42
2022/08/10 11:02:10;;;;;;;7.78;6.82;;;24.30;59.20;;;;;;4986980;28;20491;-42
2022/08/10 11:04:59;;;;;;;8.55;6.90;;;24.30;59.40;;;;;;4988548;28;20568;-42
2022/08/10 11:07:37;;;;;;;7.25;6.65;;;24.30;59.30;;;;;;4974299;28;20069;-42
2022/08/10 11:10:10;;;;;;;6.88;6.28;;;24.30;59.30;;;;;;4984670;28;20057;-42
2022/08/10 11:12:56;;;;;;;7.40;6.72;;;24.30;59.40;;;;;;4692355;28;10000979;-41
2022/08/10 11:15:27;;;;;;;;;;;24.30;59.50;;;;;;4981417;28;20227;-42
2022/08/10 11:18:10;;;;;;;7.82;6.07;;;24.30;59.40;;;;;;4983132;28;20386;-42
2022/08/10 11:20:42;;;;;;;7.60;6.90;;;24.30;59.40;;;;;;5013735;28;20034;-42
2022/08/10 11:23:17;;;;;;;7.75;6.70;;;24.30;59.40;;;;;;4981938;28;20562;-41
2022/08/10 11:26:08;;;;;;;8.45;7.05;;;24.40;59.70;;;;;;5012677;28;20069;-42
2022/08/10 11:28:47;;;;;;;8.40;6.38;;;24.30;59.80;;;;;;4978786;28;20092;-42
2022/08/10 11:31:18;;;;;;;6.82;6.22;;;24.40;59.70;;;;;;4981254;28;20038;-41
2022/08/10 11:34:10;;;;;;;7.72;7.03;;;24.40;59.80;;;;;;5009796;28;20042;-42
2022/08/10 11:36:48;;;;;;;7.30;6.60;;;24.40;59.90;;;;;;5003600;28;20023;-42
2022/08/10 11:39:18;;;;;;;7.43;6.70;;;24.40;59.80;;;;;;4984364;28;20048;-42
2022/08/10 11:41:44;;;;;;;6.95;6.35;;;24.40;60.00;;;;;;5009607;28;20046;-41
2022/08/10 11:44:14;;;;;;;9.38;6.65;;;24.40;59.90;;;;;;4979371;28;20438;-41
2022/08/10 11:46:52;;;;;;;6.40;5.90;;;24.40;59.80;;;;;;5011185;28;20034;-43
2022/08/10 11:49:29;;;;;;;6.70;5.95;;;24.40;60.10;;;;;;4981523;28;20385;-42
2022/08/10 11:52:03;;;;;;;6.57;5.95;;;24.40;60.00;;;;;;4981624;28;20117;-42
2022/08/10 11:54:30;;;;;;;6.72;6.13;;;24.50;59.90;;;;;;5011071;28;20018;-42
2022/08/10 11:56:57;;;;;;;6.82;6.25;;;24.50;60.10;;;;;;5015144;28;20135;-42
2022/08/10 12:02:09;;;;;;;6.35;5.75;;;24.50;60.90;;;;;;4993981;28;20038;-41
2022/08/10 12:04:34;;;;;;;6.43;5.93;;;24.50;60.10;;;;;;5013828;28;20033;-41
2022/08/10 12:07:03;;;;;;;6.18;5.72;;;24.50;60.10;;;;;;4982580;28;20042;-42
2022/08/10 12:09:29;;;;;;;6.32;5.85;;;24.50;60.10;;;;;;4980642;28;20035;-41
2022/08/10 12:11:57;;;;;;;7.15;6.55;;;24.50;60.10;;;;;;4979766;28;20423;-42
2022/08/10 12:15:00;;;;;;;6.28;5.75;;;24.50;60.00;;;;;;4980221;28;20121;-41
2022/08/10 12:17:33;;;;;;;7.15;5.57;;;24.50;59.90;;;;;;5003629;28;20045;-41
2022/08/10 12:20:11;;;;;;;5.47;5.03;;;24.60;60.00;;;;;;5006188;28;20042;-40
2022/08/10 12:23:12;;;;;;;5.82;5.32;;;24.50;59.90;;;;;;5008239;28;20101;-41
2022/08/10 12:25:56;;;;;;;8.00;5.03;;;24.60;59.90;;;;;;4982219;28;20054;-41
2022/08/10 12:28:39;;;;;;;5.90;5.25;;;24.60;60.10;;;;;;4983194;28;20046;-43
2022/08/10 12:31:05;;;;;;;5.85;5.05;;;24.60;60.00;;;;;;4980938;28;20054;-41
2022/08/10 12:33:33;;;;;;;6.13;5.63;;;24.60;60.00;;;;;;4977668;28;20069;-44
2022/08/10 12:36:18;;;;;;;5.45;5.05;;;24.60;60.00;;;;;;5013901;28;20034;-41
2022/08/10 12:39:02;;;;;;;5.03;4.65;;;24.50;59.90;;;;;;4983617;28;20547;-41
2022/08/10 12:41:42;;;;;;;5.72;5.10;;;24.50;60.10;;;;;;4993266;28;20030;-41
2022/08/10 12:44:10;;;;;;;5.28;4.40;;;24.50;60.00;;;;;;4996382;28;20157;-42
2022/08/10 12:46:54;;;;;;;5.00;4.60;;;24.60;60.10;;;;;;4998802;28;20026;-41
2022/08/10 12:49:23;;;;;;;5.82;5.15;;;24.60;60.00;;;;;;5012487;28;20504;-42
2022/08/10 12:52:01;;;;;;;5.82;5.20;;;24.60;60.10;;;;;;5016649;28;20030;-43
2022/08/10 12:54:27;;;;;;;4.93;4.50;;;24.70;60.30;;;;;;4997839;28;20031;-41
2022/08/10 12:57:00;;;;;;;4.78;4.47;;;24.70;60.00;;;;;;4978276;28;20104;-41
2022/08/10 12:59:27;;;;;;;5.22;4.72;;;24.70;60.30;;;;;;4979653;28;20488;-42
2022/08/10 13:01:53;;;;;;;5.00;4.60;;;24.70;60.20;;;;;;4981704;28;20384;-42
2022/08/10 13:04:30;;;;;;;4.55;4.18;;;24.70;60.00;;;;;;4978282;28;20038;-41
2022/08/10 13:06:59;;;;;;;4.13;3.83;;;24.70;60.10;;;;;;5010943;28;20117;-41
2022/08/10 13:09:24;;;;;;;4.45;4.05;;;24.70;60.00;;;;;;5008177;28;20523;-40
2022/08/10 13:11:59;;;;;;;4.72;4.35;;;24.80;60.30;;;;;;4980452;28;20042;-39
2022/08/10 13:14:52;;;;;;;5.05;4.57;;;24.70;60.10;;;;;;4981831;28;20043;-41